createdAt,value
2023-02-28T00:01:30.443Z,15.47
2023-02-28T00:04:00.078Z,14.27
2023-02-28T00:06:28.580Z,13.37
2023-02-28T00:08:56.842Z,15.43
2023-02-28T00:11:28.219Z,13.77
2023-02-28T00:13:56.393Z,15.30
2023-02-28T00:16:25.036Z,13.33
2023-02-28T00:18:53.376Z,13.27
2023-02-28T00:21:23.267Z,15.73
2023-02-28T00:23:51.398Z,15.53
2023-02-28T00:26:21.672Z,15.17
2023-02-28T00:28:50.434Z,16.00
2023-02-28T00:31:18.400Z,16.57
2023-02-28T00:33:46.415Z,16.90
2023-02-28T00:36:14.483Z,14.23
2023-02-28T00:38:43.857Z,15.93
2023-02-28T00:41:11.997Z,14.70
2023-02-28T00:43:41.063Z,14.13
2023-02-28T00:46:10.647Z,14.23
2023-02-28T00:48:38.814Z,15.57
2023-02-28T00:51:07.171Z,15.40
2023-02-28T00:53:35.356Z,15.63
2023-02-28T00:56:05.391Z,17.07
2023-02-28T00:58:33.669Z,14.43
2023-02-28T01:01:02.001Z,18.23
2023-02-28T01:03:30.050Z,17.57
2023-02-28T01:05:58.519Z,14.43
2023-02-28T01:08:29.546Z,17.43
2023-02-28T01:10:59.225Z,15.67
2023-02-28T01:13:28.654Z,16.47
2023-02-28T01:15:58.386Z,17.47
2023-02-28T01:18:26.871Z,17.53
2023-02-28T01:20:55.150Z,15.77
2023-02-28T01:23:25.111Z,17.93
2023-02-28T01:25:53.698Z,19.13
2023-02-28T01:28:22.029Z,16.03
2023-02-28T01:30:52.498Z,16.53
2023-02-28T01:33:20.744Z,17.37
2023-02-28T01:35:48.786Z,20.73
2023-02-28T01:38:22.689Z,18.60
2023-02-28T01:40:51.891Z,19.83
2023-02-28T01:43:25.107Z,16.90
2023-02-28T01:45:58.099Z,17.17
2023-02-28T01:48:28.723Z,18.10
2023-02-28T01:51:00.866Z,18.57
2023-02-28T01:53:33.943Z,17.20
2023-02-28T01:56:03.511Z,17.93
2023-02-28T01:58:31.634Z,17.27
2023-02-28T02:01:01.117Z,16.27
2023-02-28T02:03:29.256Z,19.67
2023-02-28T02:05:57.197Z,19.57
2023-02-28T02:08:28.286Z,19.70
2023-02-28T02:10:59.467Z,19.70
2023-02-28T02:13:57.408Z,20.27
2023-02-28T02:16:37.842Z,19.87
2023-02-28T02:19:27.297Z,16.87
2023-02-28T02:22:24.951Z,18.53
2023-02-28T02:25:13.898Z,19.90
2023-02-28T02:27:59.818Z,18.77
2023-02-28T02:30:49.048Z,19.63
2023-02-28T02:33:53.977Z,19.77
2023-02-28T02:36:30.228Z,19.77
2023-02-28T02:39:06.205Z,20.10
2023-02-28T02:41:40.403Z,19.07
2023-02-28T02:44:15.387Z,20.13
2023-02-28T02:46:46.668Z,16.97
2023-02-28T02:49:18.103Z,16.90
2023-02-28T02:51:49.625Z,17.50
2023-02-28T02:54:21.932Z,21.13
2023-02-28T02:56:52.189Z,17.43
2023-02-28T02:59:24.803Z,17.23
2023-02-28T03:01:56.995Z,20.07
2023-02-28T03:04:29.771Z,18.37
2023-02-28T03:06:59.185Z,19.00
2023-02-28T03:09:28.320Z,16.83
2023-02-28T03:11:58.242Z,18.83
2023-02-28T03:14:42.444Z,19.00
2023-02-28T03:17:43.475Z,18.33
2023-02-28T03:20:20.263Z,16.57
2023-02-28T03:22:57.716Z,18.47
2023-02-28T03:25:35.370Z,16.17
2023-02-28T03:28:09.717Z,20.37
2023-02-28T03:30:44.235Z,18.13
2023-02-28T03:33:16.015Z,20.30
2023-02-28T03:35:48.244Z,20.13
2023-02-28T03:38:22.165Z,18.30
2023-02-28T03:40:53.151Z,20.40
2023-02-28T03:43:28.406Z,18.80
2023-02-28T03:45:57.907Z,18.10
2023-02-28T03:48:33.047Z,17.03
2023-02-28T03:51:02.154Z,18.93
2023-02-28T03:53:35.161Z,23.03
2023-02-28T03:56:11.599Z,20.73
2023-02-28T03:58:44.459Z,19.60
2023-02-28T04:01:16.912Z,22.67
2023-02-28T04:03:46.585Z,20.67
2023-02-28T04:06:18.920Z,21.73
2023-02-28T04:08:48.883Z,21.57
2023-02-28T04:11:23.051Z,17.93
2023-02-28T04:13:51.219Z,19.60
2023-02-28T04:16:34.041Z,20.97
2023-02-28T04:19:04.506Z,19.03
2023-02-28T04:21:34.284Z,19.10
2023-02-28T04:24:05.104Z,21.97
2023-02-28T04:26:33.826Z,20.27
2023-02-28T04:29:03.045Z,19.10
2023-02-28T04:31:31.509Z,20.10
2023-02-28T04:33:59.833Z,21.03
2023-02-28T04:36:28.320Z,22.03
2023-02-28T04:38:56.510Z,24.93
2023-02-28T04:41:31.710Z,21.60
2023-02-28T04:44:00.343Z,22.87
2023-02-28T04:46:28.417Z,21.47
2023-02-28T04:48:56.483Z,20.90
2023-02-28T04:51:25.114Z,22.50
2023-02-28T04:53:53.106Z,19.73
2023-02-28T04:56:21.738Z,22.30
2023-02-28T04:58:53.993Z,24.50
2023-02-28T05:01:25.091Z,27.00
2023-02-28T05:03:54.783Z,27.33
2023-02-28T05:06:24.638Z,28.77
2023-02-28T05:08:53.398Z,25.30
2023-02-28T05:11:23.256Z,23.57
2023-02-28T05:13:53.240Z,26.23
2023-02-28T05:16:22.108Z,27.40
2023-02-28T05:18:50.186Z,29.43
2023-02-28T05:21:30.062Z,28.20
2023-02-28T05:23:59.717Z,25.30
2023-02-28T05:26:28.889Z,21.77
2023-02-28T05:28:58.736Z,20.47
2023-02-28T05:31:26.979Z,23.13
2023-02-28T05:33:55.245Z,19.67
2023-02-28T05:36:23.838Z,21.70
2023-02-28T05:38:52.856Z,20.97
2023-02-28T05:41:22.531Z,19.27
2023-02-28T05:43:51.015Z,20.67
2023-02-28T05:46:20.402Z,21.63
2023-02-28T05:48:50.024Z,19.50
2023-02-28T05:51:18.891Z,22.27
2023-02-28T05:53:46.942Z,25.10
2023-02-28T05:56:15.046Z,28.93
2023-02-28T05:58:43.091Z,28.43
2023-02-28T06:01:33.186Z,30.00
2023-02-28T06:04:02.074Z,29.13
2023-02-28T06:06:30.469Z,27.73
2023-02-28T06:08:59.111Z,29.57
2023-02-28T06:11:29.122Z,30.13
2023-02-28T06:14:00.526Z,36.17
2023-02-28T06:16:30.558Z,32.53
2023-02-28T06:19:00.284Z,26.13
2023-02-28T06:21:29.640Z,29.50
2023-02-28T06:23:58.702Z,28.63
2023-02-28T06:26:27.783Z,29.03
2023-02-28T06:28:56.581Z,27.57
2023-02-28T06:31:27.992Z,25.43
2023-02-28T06:33:57.910Z,23.60
2023-02-28T06:36:25.969Z,26.57
2023-02-28T06:38:56.408Z,23.77
2023-02-28T06:41:25.953Z,27.90
2023-02-28T06:43:54.655Z,25.73
2023-02-28T06:46:22.993Z,25.63
2023-02-28T06:48:51.152Z,29.50
2023-02-28T06:51:23.257Z,31.30
2023-02-28T06:53:51.683Z,28.00
2023-02-28T06:56:21.109Z,24.60
2023-02-28T06:58:49.818Z,25.50
2023-02-28T07:01:20.165Z,28.27
2023-02-28T07:03:53.018Z,26.30
2023-02-28T07:06:23.508Z,27.00
2023-02-28T07:08:52.921Z,23.57
2023-02-28T07:11:22.290Z,25.50
2023-02-28T07:13:50.373Z,25.87
2023-02-28T07:16:18.392Z,30.97
2023-02-28T07:18:46.528Z,25.63
2023-02-28T07:21:14.688Z,26.77
2023-02-28T07:23:44.469Z,27.60
2023-02-28T07:26:15.715Z,30.30
2023-02-28T07:28:47.051Z,29.90
2023-02-28T07:31:16.361Z,28.57
2023-02-28T07:33:44.677Z,29.00
2023-02-28T07:36:16.143Z,27.50
2023-02-28T07:38:48.565Z,26.70
2023-02-28T07:41:17.460Z,26.37
2023-02-28T07:43:47.635Z,35.13
2023-02-28T07:46:17.638Z,29.13
2023-02-28T07:48:46.657Z,28.17
2023-02-28T07:51:14.668Z,29.60
2023-02-28T07:53:42.678Z,28.77
2023-02-28T07:56:12.779Z,27.10
2023-02-28T07:58:40.761Z,26.63
2023-02-28T08:01:09.445Z,27.93
2023-02-28T08:03:38.325Z,24.30
2023-02-28T08:06:16.868Z,24.00
2023-02-28T08:08:45.413Z,23.03
2023-02-28T08:11:14.951Z,24.17
2023-02-28T08:13:44.799Z,22.40
2023-02-28T08:16:15.388Z,21.30
2023-02-28T08:18:43.779Z,21.33
2023-02-28T08:21:12.856Z,21.23
2023-02-28T08:23:41.011Z,21.70
2023-02-28T08:26:09.192Z,22.17
2023-02-28T08:28:38.544Z,24.57
2023-02-28T08:31:10.975Z,20.17
2023-02-28T08:33:39.976Z,18.13
2023-02-28T08:36:09.491Z,21.37
2023-02-28T08:38:40.221Z,17.43
2023-02-28T08:41:10.065Z,17.47
2023-02-28T08:43:40.323Z,15.80
2023-02-28T08:46:09.052Z,13.87
2023-02-28T08:48:38.756Z,12.50
2023-02-28T08:51:10.133Z,14.40
2023-02-28T08:53:38.248Z,12.10
2023-02-28T08:56:09.086Z,10.73
2023-02-28T08:58:39.069Z,12.50
2023-02-28T09:01:11.876Z,8.10
2023-02-28T09:03:40.366Z,6.90
2023-02-28T09:06:08.630Z,6.53
2023-02-28T09:08:36.920Z,8.70
2023-02-28T09:11:06.005Z,11.40
2023-02-28T09:13:35.207Z,14.03
2023-02-28T09:16:06.528Z,10.53
2023-02-28T09:18:36.932Z,9.67
2023-02-28T09:21:09.307Z,20.00
2023-02-28T09:23:39.003Z,12.67
2023-02-28T09:26:07.895Z,12.87
2023-02-28T09:28:36.031Z,10.93
2023-02-28T09:31:05.908Z,14.53
2023-02-28T09:33:35.238Z,10.07
2023-02-28T09:36:04.845Z,9.87
2023-02-28T09:38:32.835Z,7.00
2023-02-28T09:41:07.867Z,7.20
2023-02-28T09:43:40.446Z,9.87
2023-02-28T09:46:20.199Z,9.37
2023-02-28T09:48:50.293Z,7.50
2023-02-28T09:51:35.279Z,8.37
2023-02-28T09:54:03.925Z,7.77
2023-02-28T09:56:37.635Z,7.20
2023-02-28T09:59:16.169Z,9.03
2023-02-28T10:01:55.024Z,11.10
2023-02-28T10:04:38.827Z,8.17
2023-02-28T10:07:18.803Z,8.57
2023-02-28T10:09:48.978Z,8.13
2023-02-28T10:12:18.437Z,9.20
2023-02-28T10:14:49.321Z,7.90
2023-02-28T10:17:23.024Z,9.03
2023-02-28T10:20:00.819Z,8.10
2023-02-28T10:22:36.215Z,8.67
2023-02-28T10:25:19.067Z,7.70
2023-02-28T10:27:51.249Z,12.00
2023-02-28T10:30:19.516Z,10.53
2023-02-28T10:32:54.534Z,11.30
2023-02-28T10:35:24.072Z,10.33
2023-02-28T10:37:55.709Z,10.20
2023-02-28T10:40:34.442Z,10.80
2023-02-28T10:43:04.762Z,8.47
2023-02-28T10:45:35.238Z,13.83
2023-02-28T10:48:07.708Z,9.93
2023-02-28T10:50:44.251Z,11.03
2023-02-28T10:53:30.200Z,9.83
2023-02-28T10:56:00.489Z,9.93
2023-02-28T10:58:32.248Z,9.00
2023-02-28T11:01:01.808Z,9.10
2023-02-28T11:03:36.650Z,9.70
2023-02-28T11:06:14.049Z,9.37
2023-02-28T11:08:52.023Z,8.87
2023-02-28T11:11:22.149Z,13.67
2023-02-28T11:13:53.596Z,8.47
2023-02-28T11:16:22.356Z,10.13
2023-02-28T11:18:54.047Z,8.97
2023-02-28T11:21:27.040Z,12.23
2023-02-28T11:24:00.481Z,12.50
2023-02-28T11:26:40.122Z,9.70
2023-02-28T11:29:21.149Z,9.17
2023-02-28T11:32:12.110Z,9.13
2023-02-28T11:34:43.086Z,9.97
2023-02-28T11:37:15.129Z,10.33
2023-02-28T11:39:44.785Z,13.30
2023-02-28T11:42:40.213Z,10.53
2023-02-28T11:45:23.924Z,10.43
2023-02-28T11:48:03.765Z,10.73
2023-02-28T11:50:56.660Z,10.37
2023-02-28T11:53:41.499Z,9.03
2023-02-28T11:56:15.507Z,10.40
2023-02-28T11:58:53.583Z,11.97
2023-02-28T12:01:35.601Z,11.13
2023-02-28T12:04:19.304Z,9.63
2023-02-28T12:06:55.034Z,8.60
2023-02-28T12:09:38.015Z,11.57
2023-02-28T12:12:16.695Z,9.30
2023-02-28T12:15:01.292Z,10.73
2023-02-28T12:17:49.063Z,10.40
2023-02-28T12:20:28.219Z,9.23
2023-02-28T12:23:10.310Z,11.23
2023-02-28T12:25:52.006Z,10.60
2023-02-28T12:28:25.760Z,9.57
2023-02-28T12:31:00.367Z,9.43
2023-02-28T12:33:34.714Z,9.47
2023-02-28T12:36:10.973Z,10.77
2023-02-28T12:38:43.530Z,9.20
2023-02-28T12:41:16.901Z,11.37
2023-02-28T12:43:49.608Z,10.03
2023-02-28T12:46:22.635Z,9.50
2023-02-28T12:48:56.533Z,12.07
2023-02-28T12:51:26.155Z,12.27
2023-02-28T12:54:04.622Z,11.33
2023-02-28T12:56:38.439Z,13.03
2023-02-28T12:59:19.503Z,11.23
2023-02-28T13:02:04.166Z,9.70
2023-02-28T13:04:47.812Z,11.17
2023-02-28T13:07:51.448Z,13.37
2023-02-28T13:10:21.251Z,11.43
2023-02-28T13:12:53.934Z,13.00
2023-02-28T13:15:26.058Z,14.17
2023-02-28T13:17:57.195Z,13.80
2023-02-28T13:20:27.951Z,11.37
2023-02-28T13:22:58.068Z,14.87
2023-02-28T13:25:58.684Z,14.30
2023-02-28T13:29:03.234Z,10.30
2023-02-28T13:31:33.982Z,10.00
2023-02-28T13:34:14.465Z,9.73
2023-02-28T13:36:43.049Z,9.67
2023-02-28T13:39:51.191Z,9.97
2023-02-28T13:42:38.176Z,10.40
2023-02-28T13:45:30.963Z,11.07
2023-02-28T13:48:02.833Z,9.03
2023-02-28T13:50:38.634Z,9.70
2023-02-28T13:53:36.505Z,10.47
2023-02-28T13:56:12.223Z,10.93
2023-02-28T13:58:56.466Z,8.93
2023-02-28T14:01:44.006Z,10.50
2023-02-28T14:04:47.110Z,10.93
2023-02-28T14:07:21.642Z,11.53
2023-02-28T14:09:57.511Z,11.57
2023-02-28T14:12:56.664Z,9.50
2023-02-28T14:15:59.832Z,10.43
2023-02-28T14:18:34.118Z,11.40
2023-02-28T14:21:26.748Z,12.77
2023-02-28T14:24:22.773Z,10.17
2023-02-28T14:27:13.752Z,13.53
2023-02-28T14:30:22.340Z,9.90
2023-02-28T14:33:00.667Z,9.67
2023-02-28T14:35:53.143Z,10.37
2023-02-28T14:38:28.866Z,10.37
2023-02-28T14:40:59.379Z,10.70
2023-02-28T14:43:30.180Z,14.10
2023-02-28T14:46:01.575Z,14.07
2023-02-28T14:48:31.146Z,9.07
2023-02-28T14:51:01.497Z,12.20
2023-02-28T14:53:32.229Z,9.50
2023-02-28T14:56:01.471Z,10.93
2023-02-28T14:58:32.449Z,10.30
2023-02-28T15:01:02.404Z,10.93
2023-02-28T15:03:35.782Z,10.33
2023-02-28T15:06:05.771Z,11.13
2023-02-28T15:08:37.020Z,11.67
2023-02-28T15:11:09.858Z,14.20
2023-02-28T15:13:41.506Z,12.17
2023-02-28T15:16:13.827Z,10.27
2023-02-28T15:18:49.265Z,8.83
2023-02-28T15:21:19.418Z,9.90
2023-02-28T15:23:51.315Z,9.40
2023-02-28T15:26:22.976Z,8.90
2023-02-28T15:29:01.977Z,10.63
2023-02-28T15:31:39.078Z,12.60
2023-02-28T15:34:23.244Z,11.77
2023-02-28T15:36:53.084Z,12.70
2023-02-28T15:39:28.954Z,11.27
2023-02-28T15:42:12.627Z,11.77
2023-02-28T15:44:40.723Z,14.70
2023-02-28T15:47:16.678Z,12.13
2023-02-28T15:49:51.872Z,13.40
2023-02-28T15:52:23.357Z,12.77
2023-02-28T15:54:51.889Z,10.83
2023-02-28T15:57:23.395Z,16.43
2023-02-28T15:59:55.449Z,17.13
2023-02-28T16:02:32.720Z,16.67
2023-02-28T16:05:28.683Z,13.60
2023-02-28T16:07:57.545Z,11.70
2023-02-28T16:10:27.360Z,11.73
2023-02-28T16:12:56.874Z,11.97
2023-02-28T16:15:27.907Z,15.33
2023-02-28T16:17:56.922Z,12.33
2023-02-28T16:20:30.096Z,15.37
2023-02-28T16:23:02.114Z,14.60
2023-02-28T16:25:36.197Z,14.00
2023-02-28T16:28:04.569Z,13.73
2023-02-28T16:30:33.421Z,15.43
2023-02-28T16:33:01.784Z,16.13
2023-02-28T16:35:31.361Z,18.50
2023-02-28T16:38:02.308Z,15.80
2023-02-28T16:40:35.085Z,14.17
2023-02-28T16:43:08.567Z,19.27
2023-02-28T16:45:36.818Z,16.20
2023-02-28T16:48:04.914Z,18.80
2023-02-28T16:50:34.662Z,19.07
2023-02-28T16:53:02.696Z,22.87
2023-02-28T16:55:30.666Z,25.03
2023-02-28T16:58:00.806Z,21.93
2023-02-28T17:00:30.952Z,26.37
2023-02-28T17:03:00.093Z,20.47
2023-02-28T17:05:30.189Z,23.20
2023-02-28T17:07:59.516Z,24.40
2023-02-28T17:10:28.624Z,23.00
2023-02-28T17:13:06.184Z,23.10
2023-02-28T17:15:41.983Z,24.83
2023-02-28T17:18:15.646Z,26.70
2023-02-28T17:20:43.918Z,33.17
2023-02-28T17:23:13.781Z,35.93
2023-02-28T17:25:41.786Z,36.73
2023-02-28T17:28:11.271Z,40.73
2023-02-28T17:30:39.400Z,39.57
2023-02-28T17:33:07.342Z,43.67
2023-02-28T17:35:35.676Z,41.47
2023-02-28T17:38:03.904Z,44.37
2023-02-28T17:40:34.815Z,41.47
2023-02-28T17:43:03.062Z,47.40
2023-02-28T17:45:31.048Z,46.93
2023-02-28T17:47:59.070Z,51.40
2023-02-28T17:50:27.025Z,47.27
2023-02-28T17:52:55.001Z,57.40
2023-02-28T17:55:22.964Z,55.00
2023-02-28T17:57:52.308Z,57.27
2023-02-28T18:00:24.813Z,57.33
2023-02-28T18:02:53.055Z,53.50
2023-02-28T18:05:21.112Z,50.03
2023-02-28T18:07:49.123Z,51.53
2023-02-28T18:10:20.368Z,44.10
2023-02-28T18:12:49.321Z,44.53
2023-02-28T18:15:20.952Z,50.90
2023-02-28T18:17:49.782Z,47.07
2023-02-28T18:20:17.973Z,59.83
2023-02-28T18:22:46.045Z,73.57
2023-02-28T18:25:16.922Z,68.73
2023-02-28T18:27:53.992Z,63.13
2023-02-28T18:30:24.838Z,69.07
2023-02-28T18:32:52.841Z,63.10
2023-02-28T18:35:34.785Z,68.30
2023-02-28T18:38:05.621Z,65.53
2023-02-28T18:40:34.051Z,70.53
2023-02-28T18:43:02.373Z,65.10
2023-02-28T18:45:32.197Z,72.07
2023-02-28T18:48:00.187Z,75.77
2023-02-28T18:50:29.580Z,73.60
2023-02-28T18:52:59.162Z,68.43
2023-02-28T18:55:27.927Z,69.40
2023-02-28T18:57:55.989Z,65.70
2023-02-28T19:00:26.011Z,53.87
2023-02-28T19:02:55.387Z,48.93
2023-02-28T19:05:23.443Z,55.67
2023-02-28T19:07:51.743Z,47.87
2023-02-28T19:10:20.275Z,45.73
2023-02-28T19:12:51.054Z,48.37
2023-02-28T19:15:19.558Z,52.90
2023-02-28T19:17:54.042Z,52.40
2023-02-28T19:20:23.669Z,48.20
2023-02-28T19:22:52.155Z,45.03
2023-02-28T19:25:20.162Z,40.23
2023-02-28T19:27:48.384Z,39.43
2023-02-28T19:30:16.640Z,30.67
2023-02-28T19:32:44.909Z,34.33
2023-02-28T19:35:13.159Z,33.83
2023-02-28T19:37:43.322Z,28.50
2023-02-28T19:40:13.685Z,30.43
2023-02-28T19:42:41.703Z,28.23
2023-02-28T19:45:14.631Z,23.47
2023-02-28T19:47:42.740Z,26.70
2023-02-28T19:50:12.254Z,27.33
2023-02-28T19:55:14.913Z,29.07
2023-02-28T19:57:44.868Z,28.93
2023-02-28T20:00:15.505Z,31.33
2023-02-28T20:02:45.898Z,31.00
2023-02-28T20:05:13.893Z,31.23
2023-02-28T20:07:41.872Z,30.67
2023-02-28T20:10:11.239Z,33.63
2023-02-28T20:12:40.620Z,38.77
2023-02-28T20:15:15.010Z,33.37
2023-02-28T20:17:43.062Z,35.80
2023-02-28T20:20:12.311Z,34.27
2023-02-28T20:22:40.355Z,36.70
2023-02-28T20:25:11.431Z,36.67
2023-02-28T20:27:40.804Z,40.17
2023-02-28T20:30:11.783Z,44.03
2023-02-28T20:32:39.859Z,37.60
2023-02-28T20:35:11.569Z,36.40
2023-02-28T20:37:40.127Z,33.13
2023-02-28T20:40:10.051Z,33.37
2023-02-28T20:42:38.294Z,31.00
2023-02-28T20:45:10.116Z,30.97
2023-02-28T20:47:39.110Z,30.17
2023-02-28T20:50:08.415Z,31.73
2023-02-28T20:52:36.423Z,32.43
2023-02-28T20:55:07.575Z,35.07
2023-02-28T20:57:35.642Z,32.90
2023-02-28T21:00:04.114Z,31.97
2023-02-28T21:02:33.597Z,34.77
2023-02-28T21:05:01.575Z,32.13
2023-02-28T21:07:29.763Z,38.00
2023-02-28T21:09:57.989Z,37.67
2023-02-28T21:12:26.730Z,43.53
2023-02-28T21:14:54.706Z,38.90
2023-02-28T21:17:25.012Z,34.60
2023-02-28T21:19:54.366Z,36.43
2023-02-28T21:22:22.652Z,32.70
2023-02-28T21:24:50.627Z,35.70
2023-02-28T21:27:18.601Z,32.60
2023-02-28T21:29:46.673Z,30.00
2023-02-28T21:32:18.253Z,29.73
2023-02-28T21:34:49.148Z,25.77
2023-02-28T21:37:18.608Z,27.63
2023-02-28T21:39:46.704Z,29.20
2023-02-28T21:42:14.695Z,26.13
2023-02-28T21:44:42.748Z,27.00
2023-02-28T21:47:10.740Z,33.60
2023-02-28T21:49:39.153Z,28.63
2023-02-28T21:52:09.202Z,30.50
2023-02-28T21:54:38.721Z,38.00
2023-02-28T21:57:06.791Z,51.53
2023-02-28T21:59:35.227Z,89.97
2023-02-28T22:02:05.415Z,65.13
2023-02-28T22:04:33.505Z,61.50
2023-02-28T22:07:01.512Z,60.63
2023-02-28T22:09:30.018Z,64.27
2023-02-28T22:11:59.427Z,65.63
2023-02-28T22:14:27.886Z,63.43
2023-02-28T22:16:56.947Z,74.13
2023-02-28T22:19:28.204Z,69.17
2023-02-28T22:21:56.994Z,81.63
2023-02-28T22:24:27.258Z,81.30
2023-02-28T22:26:55.581Z,71.40
2023-02-28T22:29:25.037Z,70.50
2023-02-28T22:31:53.109Z,67.13
2023-02-28T22:34:21.348Z,68.93
2023-02-28T22:36:49.345Z,67.10
2023-02-28T22:39:17.535Z,62.87
2023-02-28T22:41:45.538Z,55.00
2023-02-28T22:44:13.605Z,64.20
2023-02-28T22:46:42.998Z,63.93
2023-02-28T22:49:10.987Z,64.63
2023-02-28T22:51:39.044Z,64.83
2023-02-28T22:54:07.184Z,70.80
2023-02-28T22:56:35.311Z,70.63
2023-02-28T22:59:03.823Z,68.37
2023-02-28T23:01:34.333Z,69.73
2023-02-28T23:04:04.173Z,59.53
2023-02-28T23:06:34.380Z,44.93
2023-02-28T23:09:04.898Z,39.47
2023-02-28T23:11:37.001Z,39.03
2023-02-28T23:14:07.663Z,31.23
2023-02-28T23:16:38.623Z,33.50
2023-02-28T23:19:09.654Z,27.97
2023-02-28T23:21:39.074Z,28.73
2023-02-28T23:24:11.796Z,29.10
2023-02-28T23:26:41.693Z,27.60
2023-02-28T23:29:09.763Z,27.23
2023-02-28T23:31:38.028Z,27.57
2023-02-28T23:34:07.689Z,28.50
2023-02-28T23:36:35.717Z,28.07
2023-02-28T23:39:03.882Z,27.90
2023-02-28T23:41:31.854Z,27.37
2023-02-28T23:43:59.903Z,29.30
2023-02-28T23:46:28.570Z,27.27
2023-02-28T23:48:56.845Z,29.43
2023-02-28T23:51:26.184Z,29.63
2023-02-28T23:53:54.392Z,29.43
2023-02-28T23:56:24.264Z,33.97
2023-02-28T23:58:52.556Z,30.70
